KSMN

Lemhi County Airport

Salmon, Idaho, USA
KSMN 172320Z 1800/1824 VRB04KT P6SM SCT120
Issued Valid From Valid To
Jul-17 @ 23:20 UTC
(6 hours ago)
Jul-18 @ 00:00 UTC
(5 hours ago)
Jul-19 @ 00:00 UTC
(in 19 hours)
Jul-18 @ 00:00 to Jul-19 @ 00:00
KSMN 172320Z 1800/1824 VRB04KT P6SM SCT120
Wind Visibility Clouds
Variable at 4 knots Greater than 6 miles
  • Scattered at 12,000' AGL
KSMN 172320Z 1800/1824 VRB04KT P6SM SCT120
Issued Jul-17 @ 23:20 UTC
(6 hours ago)
Valid From Jul-18 @ 00:00 UTC
(5 hours ago)
Valid To Jul-19 @ 00:00 UTC
(in 19 hours)
Jul-18 @ 00:00 - Jul-19 @ 00:00
Wind Visibility
Variable at 4 knots Greater than 6 miles
Clouds
  • Scattered at 12,000' AGL